sensor_id;sensor_type;location;lat;lon;timestamp;pressure;altitude;pressure_sealevel;temperature;humidity
6136;BME280;24008;42.664;23.372;2023-01-28T00:02:25;94084.38;;;-0.08;100.00
6136;BME280;24008;42.664;23.372;2023-01-28T00:04:52;94089.56;;;-0.11;100.00
6136;BME280;24008;42.664;23.372;2023-01-28T00:07:21;94063.78;;;-0.27;100.00
6136;BME280;24008;42.664;23.372;2023-01-28T00:09:50;94067.19;;;-0.28;100.00
6136;BME280;24008;42.664;23.372;2023-01-28T00:12:17;94098.00;;;-0.12;100.00
6136;BME280;24008;42.664;23.372;2023-01-28T00:14:44;94094.50;;;-0.09;100.00
6136;BME280;24008;42.664;23.372;2023-01-28T00:17:13;94107.69;;;-0.06;100.00
6136;BME280;24008;42.664;23.372;2023-01-28T00:19:43;94001.66;;;-0.79;100.00
6136;BME280;24008;42.664;23.372;2023-01-28T00:22:09;94104.28;;;-0.05;100.00
6136;BME280;24008;42.664;23.372;2023-01-28T00:24:36;94107.88;;;-0.09;100.00
6136;BME280;24008;42.664;23.372;2023-01-28T00:27:03;94110.38;;;-0.09;100.00
6136;BME280;24008;42.664;23.372;2023-01-28T00:29:30;94107.16;;;-0.11;100.00
6136;BME280;24008;42.664;23.372;2023-01-28T00:31:56;94031.91;;;-0.67;100.00
6136;BME280;24008;42.664;23.372;2023-01-28T00:34:24;94115.50;;;-0.10;100.00
6136;BME280;24008;42.664;23.372;2023-01-28T00:36:51;94055.94;;;-0.49;100.00
6136;BME280;24008;42.664;23.372;2023-01-28T00:39:22;94098.41;;;-0.32;100.00
6136;BME280;24008;42.664;23.372;2023-01-28T00:41:49;94122.13;;;-0.09;100.00
6136;BME280;24008;42.664;23.372;2023-01-28T00:44:16;94115.69;;;-0.13;100.00
6136;BME280;24008;42.664;23.372;2023-01-28T00:46:43;94091.75;;;-0.33;100.00
6136;BME280;24008;42.664;23.372;2023-01-28T00:49:10;93936.19;;;-1.31;100.00
6136;BME280;24008;42.664;23.372;2023-01-28T00:51:38;94128.13;;;-0.12;100.00
6136;BME280;24008;42.664;23.372;2023-01-28T00:54:05;94124.56;;;-0.08;100.00
6136;BME280;24008;42.664;23.372;2023-01-28T00:56:33;94125.19;;;-0.04;100.00
6136;BME280;24008;42.664;23.372;2023-01-28T00:59:01;94128.41;;;-0.02;100.00
6136;BME280;24008;42.664;23.372;2023-01-28T01:01:28;94127.59;;;-0.03;100.00
6136;BME280;24008;42.664;23.372;2023-01-28T01:03:55;94104.84;;;-0.14;100.00
6136;BME280;24008;42.664;23.372;2023-01-28T01:06:27;94129.22;;;-0.02;100.00
6136;BME280;24008;42.664;23.372;2023-01-28T01:08:56;93973.81;;;-1.02;100.00
6136;BME280;24008;42.664;23.372;2023-01-28T01:11:23;94121.16;;;-0.07;100.00
6136;BME280;24008;42.664;23.372;2023-01-28T01:13:51;94132.19;;;-0.09;100.00
6136;BME280;24008;42.664;23.372;2023-01-28T01:16:19;94098.47;;;-0.19;100.00
6136;BME280;24008;42.664;23.372;2023-01-28T01:18:47;94121.78;;;-0.03;100.00
6136;BME280;24008;42.664;23.372;2023-01-28T01:21:15;94034.44;;;-0.67;100.00
6136;BME280;24008;42.664;23.372;2023-01-28T01:23:43;94132.81;;;-0.06;100.00
6136;BME280;24008;42.664;23.372;2023-01-28T01:26:11;94134.59;;;-0.08;100.00
6136;BME280;24008;42.664;23.372;2023-01-28T01:28:39;94132.25;;;-0.11;100.00
6136;BME280;24008;42.664;23.372;2023-01-28T01:31:07;94117.25;;;-0.25;100.00
6136;BME280;24008;42.664;23.372;2023-01-28T01:33:34;94103.06;;;-0.26;100.00
6136;BME280;24008;42.664;23.372;2023-01-28T01:36:01;94103.16;;;-0.27;100.00
6136;BME280;24008;42.664;23.372;2023-01-28T01:38:28;94138.81;;;-0.08;100.00
6136;BME280;24008;42.664;23.372;2023-01-28T01:40:56;94130.56;;;-0.10;100.00
6136;BME280;24008;42.664;23.372;2023-01-28T01:46:07;94137.28;;;-0.11;100.00
6136;BME280;24008;42.664;23.372;2023-01-28T01:48:34;94072.06;;;-0.53;100.00
6136;BME280;24008;42.664;23.372;2023-01-28T01:51:04;94131.56;;;-0.13;100.00
6136;BME280;24008;42.664;23.372;2023-01-28T01:53:34;94054.97;;;-0.61;100.00
6136;BME280;24008;42.664;23.372;2023-01-28T01:56:05;94135.16;;;-0.17;100.00
6136;BME280;24008;42.664;23.372;2023-01-28T01:58:38;94097.44;;;-0.44;100.00
6136;BME280;24008;42.664;23.372;2023-01-28T02:01:06;94135.78;;;-0.13;100.00
6136;BME280;24008;42.664;23.372;2023-01-28T02:03:39;94139.19;;;-0.14;100.00
6136;BME280;24008;42.664;23.372;2023-01-28T02:06:09;94150.06;;;-0.14;100.00
6136;BME280;24008;42.664;23.372;2023-01-28T02:08:37;94150.22;;;-0.17;100.00
6136;BME280;24008;42.664;23.372;2023-01-28T02:11:05;94114.91;;;-0.42;100.00
6136;BME280;24008;42.664;23.372;2023-01-28T02:13:35;94122.78;;;-0.34;100.00
6136;BME280;24008;42.664;23.372;2023-01-28T02:16:05;94153.63;;;-0.18;100.00
6136;BME280;24008;42.664;23.372;2023-01-28T02:18:33;94158.81;;;-0.21;100.00
6136;BME280;24008;42.664;23.372;2023-01-28T02:21:18;94162.94;;;-0.20;100.00
6136;BME280;24008;42.664;23.372;2023-01-28T02:24:18;94163.84;;;-0.21;100.00
6136;BME280;24008;42.664;23.372;2023-01-28T02:27:10;94158.22;;;-0.24;100.00
6136;BME280;24008;42.664;23.372;2023-01-28T02:29:45;94141.25;;;-0.35;100.00
6136;BME280;24008;42.664;23.372;2023-01-28T02:32:19;94037.94;;;-1.13;100.00
6136;BME280;24008;42.664;23.372;2023-01-28T02:34:51;94157.59;;;-0.28;100.00
6136;BME280;24008;42.664;23.372;2023-01-28T02:37:24;94122.91;;;-0.50;100.00
6136;BME280;24008;42.664;23.372;2023-01-28T02:39:55;94157.59;;;-0.28;100.00
6136;BME280;24008;42.664;23.372;2023-01-28T02:42:26;94162.59;;;-0.28;100.00
6136;BME280;24008;42.664;23.372;2023-01-28T02:44:55;94118.84;;;-0.52;100.00
6136;BME280;24008;42.664;23.372;2023-01-28T02:47:22;94159.72;;;-0.22;100.00
6136;BME280;24008;42.664;23.372;2023-01-28T02:50:09;94164.75;;;-0.22;100.00
6136;BME280;24008;42.664;23.372;2023-01-28T02:52:48;94133.84;;;-0.37;100.00
6136;BME280;24008;42.664;23.372;2023-01-28T02:55:51;94040.44;;;-0.98;100.00
6136;BME280;24008;42.664;23.372;2023-01-28T02:58:25;94132.66;;;-0.45;100.00
6136;BME280;24008;42.664;23.372;2023-01-28T03:01:07;94168.16;;;-0.23;100.00
6136;BME280;24008;42.664;23.372;2023-01-28T03:03:43;94111.25;;;-0.65;100.00
6136;BME280;24008;42.664;23.372;2023-01-28T03:06:16;94142.44;;;-0.41;99.92
6136;BME280;24008;42.664;23.372;2023-01-28T03:08:47;94053.88;;;-0.99;100.00
6136;BME280;24008;42.664;23.372;2023-01-28T03:11:39;94159.38;;;-0.30;99.85
6136;BME280;24008;42.664;23.372;2023-01-28T03:14:25;94135.53;;;-0.51;100.00
6136;BME280;24008;42.664;23.372;2023-01-28T03:17:17;94165.38;;;-0.32;100.00
6136;BME280;24008;42.664;23.372;2023-01-28T03:20:04;94056.91;;;-1.09;99.54
6136;BME280;24008;42.664;23.372;2023-01-28T03:22:50;94143.16;;;-0.53;99.94
6136;BME280;24008;42.664;23.372;2023-01-28T03:25:40;94045.53;;;-1.14;100.00
6136;BME280;24008;42.664;23.372;2023-01-28T03:28:28;94119.75;;;-0.67;100.00
6136;BME280;24008;42.664;23.372;2023-01-28T03:31:17;94176.50;;;-0.37;99.48
6136;BME280;24008;42.664;23.372;2023-01-28T03:34:05;94084.41;;;-0.93;99.71
6136;BME280;24008;42.664;23.372;2023-01-28T03:36:52;94176.50;;;-0.37;99.13
6136;BME280;24008;42.664;23.372;2023-01-28T03:39:23;94175.59;;;-0.36;99.05
6136;BME280;24008;42.664;23.372;2023-01-28T03:41:58;94176.59;;;-0.38;99.17
6136;BME280;24008;42.664;23.372;2023-01-28T03:44:26;94063.09;;;-1.14;99.23
6136;BME280;24008;42.664;23.372;2023-01-28T03:47:10;94153.28;;;-0.54;99.62
6136;BME280;24008;42.664;23.372;2023-01-28T03:49:40;94173.19;;;-0.37;99.91
6136;BME280;24008;42.664;23.372;2023-01-28T03:52:07;94181.72;;;-0.40;100.00
6136;BME280;24008;42.664;23.372;2023-01-28T03:54:34;94194.25;;;-0.40;99.70
6136;BME280;24008;42.664;23.372;2023-01-28T03:57:00;94185.13;;;-0.41;99.54
6136;BME280;24008;42.664;23.372;2023-01-28T03:59:27;94170.47;;;-0.48;99.90
6136;BME280;24008;42.664;23.372;2023-01-28T04:01:54;94160.38;;;-0.61;99.96
6136;BME280;24008;42.664;23.372;2023-01-28T04:04:21;94189.84;;;-0.36;99.75
6136;BME280;24008;42.664;23.372;2023-01-28T04:06:53;94113.47;;;-0.75;99.99
6136;BME280;24008;42.664;23.372;2023-01-28T04:09:20;94129.94;;;-0.70;100.00
6136;BME280;24008;42.664;23.372;2023-01-28T04:11:48;93980.66;;;-1.63;99.42
6136;BME280;24008;42.664;23.372;2023-01-28T04:14:15;94167.06;;;-0.47;100.00
6136;BME280;24008;42.664;23.372;2023-01-28T04:16:42;94157.31;;;-0.52;99.66
6136;BME280;24008;42.664;23.372;2023-01-28T04:19:10;94175.69;;;-0.51;99.30
6136;BME280;24008;42.664;23.372;2023-01-28T04:21:38;94144.13;;;-0.69;99.49
6136;BME280;24008;42.664;23.372;2023-01-28T04:24:06;94131.22;;;-0.78;99.73
6136;BME280;24008;42.664;23.372;2023-01-28T04:26:35;94205.03;;;-0.38;99.96
6136;BME280;24008;42.664;23.372;2023-01-28T04:29:02;94205.09;;;-0.39;99.85
6136;BME280;24008;42.664;23.372;2023-01-28T04:31:29;94212.81;;;-0.42;99.86
6136;BME280;24008;42.664;23.372;2023-01-28T04:33:56;94180.53;;;-0.62;99.93
6136;BME280;24008;42.664;23.372;2023-01-28T04:36:23;94179.25;;;-0.69;100.00
6136;BME280;24008;42.664;23.372;2023-01-28T04:38:50;94215.78;;;-0.50;99.47
6136;BME280;24008;42.664;23.372;2023-01-28T04:41:18;94220.69;;;-0.48;99.81
6136;BME280;24008;42.664;23.372;2023-01-28T04:43:45;94228.94;;;-0.46;100.00
6136;BME280;24008;42.664;23.372;2023-01-28T04:46:13;94220.88;;;-0.51;100.00
6136;BME280;24008;42.664;23.372;2023-01-28T04:48:40;94225.16;;;-0.53;100.00
6136;BME280;24008;42.664;23.372;2023-01-28T04:51:07;94226.06;;;-0.54;100.00
6136;BME280;24008;42.664;23.372;2023-01-28T04:53:33;94228.72;;;-0.57;100.00
6136;BME280;24008;42.664;23.372;2023-01-28T04:56:00;94234.56;;;-0.57;100.00
6136;BME280;24008;42.664;23.372;2023-01-28T04:58:28;94239.59;;;-0.57;100.00
6136;BME280;24008;42.664;23.372;2023-01-28T05:00:55;94233.59;;;-0.54;100.00
6136;BME280;24008;42.664;23.372;2023-01-28T05:03:23;94203.16;;;-0.78;100.00
6136;BME280;24008;42.664;23.372;2023-01-28T05:05:50;94150.84;;;-1.14;100.00
6136;BME280;24008;42.664;23.372;2023-01-28T05:08:17;94244.53;;;-0.55;100.00
6136;BME280;24008;42.664;23.372;2023-01-28T05:10:43;94246.13;;;-0.54;100.00
6136;BME280;24008;42.664;23.372;2023-01-28T05:13:10;94111.94;;;-1.35;100.00
6136;BME280;24008;42.664;23.372;2023-01-28T05:15:38;94251.00;;;-0.51;100.00
6136;BME280;24008;42.664;23.372;2023-01-28T05:18:05;94250.78;;;-0.48;100.00
6136;BME280;24008;42.664;23.372;2023-01-28T05:20:32;94187.97;;;-0.91;100.00
6136;BME280;24008;42.664;23.372;2023-01-28T05:22:59;94256.19;;;-0.54;100.00
6136;BME280;24008;42.664;23.372;2023-01-28T05:25:25;94259.56;;;-0.55;100.00
6136;BME280;24008;42.664;23.372;2023-01-28T05:27:53;94262.97;;;-0.56;100.00
6136;BME280;24008;42.664;23.372;2023-01-28T05:30:20;94258.03;;;-0.58;100.00
6136;BME280;24008;42.664;23.372;2023-01-28T05:32:53;94263.34;;;-0.62;100.00
6136;BME280;24008;42.664;23.372;2023-01-28T05:35:20;94264.22;;;-0.63;100.00
6136;BME280;24008;42.664;23.372;2023-01-28T05:37:46;94266.75;;;-0.63;100.00
6136;BME280;24008;42.664;23.372;2023-01-28T05:40:13;94266.75;;;-0.63;100.00
6136;BME280;24008;42.664;23.372;2023-01-28T05:42:40;94264.97;;;-0.61;100.00
6136;BME280;24008;42.664;23.372;2023-01-28T05:45:08;94239.09;;;-0.78;100.00
6136;BME280;24008;42.664;23.372;2023-01-28T05:47:35;94262.44;;;-0.61;100.00
6136;BME280;24008;42.664;23.372;2023-01-28T05:50:04;94264.16;;;-0.62;100.00
6136;BME280;24008;42.664;23.372;2023-01-28T05:52:31;94256.13;;;-0.68;100.00
6136;BME280;24008;42.664;23.372;2023-01-28T05:54:58;94281.59;;;-0.60;100.00
6136;BME280;24008;42.664;23.372;2023-01-28T05:57:25;94276.59;;;-0.60;100.00
6136;BME280;24008;42.664;23.372;2023-01-28T05:59:52;94245.34;;;-0.85;100.00
6136;BME280;24008;42.664;23.372;2023-01-28T06:02:19;94207.63;;;-1.13;100.00
6136;BME280;24008;42.664;23.372;2023-01-28T06:04:46;94295.53;;;-0.55;100.00
6136;BME280;24008;42.664;23.372;2023-01-28T06:07:14;94269.84;;;-0.74;100.00
6136;BME280;24008;42.664;23.372;2023-01-28T06:09:44;94303.22;;;-0.58;100.00
6136;BME280;24008;42.664;23.372;2023-01-28T06:12:11;94279.16;;;-0.76;99.51
6136;BME280;24008;42.664;23.372;2023-01-28T06:14:38;94305.56;;;-0.55;99.62
6136;BME280;24008;42.664;23.372;2023-01-28T06:17:05;94309.78;;;-0.55;99.58
6136;BME280;24008;42.664;23.372;2023-01-28T06:19:31;94308.88;;;-0.54;99.30
6136;BME280;24008;42.664;23.372;2023-01-28T06:21:58;94279.06;;;-0.75;99.58
6136;BME280;24008;42.664;23.372;2023-01-28T06:24:26;94294.13;;;-0.75;99.16
6136;BME280;24008;42.664;23.372;2023-01-28T06:26:53;94329.69;;;-0.52;99.19
6136;BME280;24008;42.664;23.372;2023-01-28T06:29:20;94327.91;;;-0.50;99.10
6136;BME280;24008;42.664;23.372;2023-01-28T06:31:46;94325.09;;;-0.30;100.00
6136;BME280;24008;42.664;23.372;2023-01-28T06:34:13;94322.66;;;-0.31;100.00
6136;BME280;24008;42.664;23.372;2023-01-28T06:36:40;94316.84;;;-0.32;100.00
6136;BME280;24008;42.664;23.372;2023-01-28T06:39:07;94332.47;;;-0.27;99.45
6136;BME280;24008;42.664;23.372;2023-01-28T06:41:35;94329.31;;;-0.30;98.10
6136;BME280;24008;42.664;23.372;2023-01-28T06:44:02;94328.84;;;-0.37;98.16
6136;BME280;24008;42.664;23.372;2023-01-28T06:46:28;94341.41;;;-0.23;97.55
6136;BME280;24008;42.664;23.372;2023-01-28T06:48:55;94337.56;;;-0.28;97.57
6136;BME280;24008;42.664;23.372;2023-01-28T06:51:22;94351.13;;;-0.17;96.08
6136;BME280;24008;42.664;23.372;2023-01-28T06:53:48;94331.91;;;-0.32;95.87
6136;BME280;24008;42.664;23.372;2023-01-28T06:56:15;94332.72;;;-0.31;96.00
6136;BME280;24008;42.664;23.372;2023-01-28T06:58:43;94356.16;;;-0.17;95.41
6136;BME280;24008;42.664;23.372;2023-01-28T07:01:10;94341.41;;;-0.23;94.83
6136;BME280;24008;42.664;23.372;2023-01-28T07:03:37;94353.47;;;-0.14;95.04
6136;BME280;24008;42.664;23.372;2023-01-28T07:06:06;94364.22;;;-0.12;95.00
6136;BME280;24008;42.664;23.372;2023-01-28T07:08:33;94369.16;;;-0.10;94.64
6136;BME280;24008;42.664;23.372;2023-01-28T07:11:02;94361.03;;;-0.14;94.72
6136;BME280;24008;42.664;23.372;2023-01-28T07:13:29;94370.06;;;-0.11;94.50
6136;BME280;24008;42.664;23.372;2023-01-28T07:15:57;94381.03;;;-0.12;94.82
6136;BME280;24008;42.664;23.372;2023-01-28T07:18:24;94313.81;;;-0.53;94.26
6136;BME280;24008;42.664;23.372;2023-01-28T07:20:51;94298.94;;;-0.72;94.44
6136;BME280;24008;42.664;23.372;2023-01-28T07:23:23;94390.81;;;-0.08;94.17
6136;BME280;24008;42.664;23.372;2023-01-28T07:25:49;94363.56;;;-0.29;94.04
6136;BME280;24008;42.664;23.372;2023-01-28T07:28:19;94277.63;;;-0.79;94.13
6136;BME280;24008;42.664;23.372;2023-01-28T07:30:52;94415.69;;;-0.03;94.12
6136;BME280;24008;42.664;23.372;2023-01-28T07:33:20;94409.75;;;-0.02;94.20
6136;BME280;24008;42.664;23.372;2023-01-28T07:35:47;94402.13;;;-0.01;94.11
6136;BME280;24008;42.664;23.372;2023-01-28T07:38:15;94412.19;;;-0.01;93.99
6136;BME280;24008;42.664;23.372;2023-01-28T07:40:41;94367.34;;;-0.22;93.95
6136;BME280;24008;42.664;23.372;2023-01-28T07:43:09;94410.22;;;0.05;94.39
6136;BME280;24008;42.664;23.372;2023-01-28T07:45:42;94377.50;;;-0.10;94.55
6136;BME280;24008;42.664;23.372;2023-01-28T07:48:11;94411.78;;;0.21;94.43
6136;BME280;24008;42.664;23.372;2023-01-28T07:50:40;94340.72;;;-0.25;94.07
6136;BME280;24008;42.664;23.372;2023-01-28T07:53:10;94415.84;;;0.24;92.82
6136;BME280;24008;42.664;23.372;2023-01-28T07:55:37;94418.34;;;0.24;92.23
6136;BME280;24008;42.664;23.372;2023-01-28T07:58:06;94437.53;;;0.25;92.20
6136;BME280;24008;42.664;23.372;2023-01-28T08:00:35;94348.41;;;-0.28;91.73
6136;BME280;24008;42.664;23.372;2023-01-28T08:03:03;94327.75;;;-0.33;92.44
6136;BME280;24008;42.664;23.372;2023-01-28T08:05:37;94307.47;;;-0.44;91.89
6136;BME280;24008;42.664;23.372;2023-01-28T08:08:07;94399.63;;;0.14;92.00
6136;BME280;24008;42.664;23.372;2023-01-28T08:10:34;94430.22;;;0.36;91.69
6136;BME280;24008;42.664;23.372;2023-01-28T08:13:01;94428.59;;;0.35;91.62
6136;BME280;24008;42.664;23.372;2023-01-28T08:15:28;94400.28;;;0.17;91.61
6136;BME280;24008;42.664;23.372;2023-01-28T08:17:57;94406.38;;;0.13;91.24
6136;BME280;24008;42.664;23.372;2023-01-28T08:20:25;94330.44;;;-0.36;91.10
6136;BME280;24008;42.664;23.372;2023-01-28T08:22:53;94437.94;;;0.33;90.86
6136;BME280;24008;42.664;23.372;2023-01-28T08:25:21;94384.44;;;0.01;91.20
6136;BME280;24008;42.664;23.372;2023-01-28T08:27:47;94406.56;;;0.24;91.07
6136;BME280;24008;42.664;23.372;2023-01-28T08:30:14;94441.81;;;0.53;90.83
6136;BME280;24008;42.664;23.372;2023-01-28T08:32:41;94379.63;;;0.12;90.25
6136;BME280;24008;42.664;23.372;2023-01-28T08:35:08;94408.28;;;0.38;89.82
6136;BME280;24008;42.664;23.372;2023-01-28T08:37:35;94441.66;;;0.56;89.54
6136;BME280;24008;42.664;23.372;2023-01-28T08:40:01;94441.56;;;0.57;89.29
6136;BME280;24008;42.664;23.372;2023-01-28T08:42:29;94439.97;;;0.70;89.18
6136;BME280;24008;42.664;23.372;2023-01-28T08:44:56;94405.81;;;0.52;88.62
6136;BME280;24008;42.664;23.372;2023-01-28T08:47:24;94448.28;;;0.85;89.18
6136;BME280;24008;42.664;23.372;2023-01-28T08:49:51;94451.09;;;0.95;88.63
6136;BME280;24008;42.664;23.372;2023-01-28T08:52:17;94441.00;;;1.09;87.81
6136;BME280;24008;42.664;23.372;2023-01-28T08:54:46;94374.19;;;0.77;86.96
6136;BME280;24008;42.664;23.372;2023-01-28T08:57:13;94424.66;;;1.16;86.28
6136;BME280;24008;42.664;23.372;2023-01-28T08:59:41;94415.22;;;1.20;85.39
6136;BME280;24008;42.664;23.372;2023-01-28T09:02:12;94305.41;;;0.63;85.01
6136;BME280;24008;42.664;23.372;2023-01-28T09:04:39;94397.97;;;1.14;83.85
6136;BME280;24008;42.664;23.372;2023-01-28T09:07:07;94450.69;;;1.43;83.56
6136;BME280;24008;42.664;23.372;2023-01-28T09:09:34;94379.19;;;1.05;83.45
6136;BME280;24008;42.664;23.372;2023-01-28T09:12:01;94329.22;;;0.72;82.99
6136;BME280;24008;42.664;23.372;2023-01-28T09:14:28;94451.19;;;1.49;82.75
6136;BME280;24008;42.664;23.372;2023-01-28T09:16:57;94400.38;;;1.15;82.74
6136;BME280;24008;42.664;23.372;2023-01-28T09:19:24;94401.34;;;1.27;82.32
6136;BME280;24008;42.664;23.372;2023-01-28T09:21:50;94452.56;;;1.81;82.60
6136;BME280;24008;42.664;23.372;2023-01-28T09:24:17;94397.59;;;1.47;82.13
6136;BME280;24008;42.664;23.372;2023-01-28T09:26:44;94447.28;;;1.98;82.01
6136;BME280;24008;42.664;23.372;2023-01-28T09:29:11;94294.78;;;1.14;80.99
6136;BME280;24008;42.664;23.372;2023-01-28T09:31:39;94446.31;;;2.13;80.82
6136;BME280;24008;42.664;23.372;2023-01-28T09:34:07;94389.16;;;1.74;80.52
6136;BME280;24008;42.664;23.372;2023-01-28T09:36:34;94322.28;;;1.17;80.06
6136;BME280;24008;42.664;23.372;2023-01-28T09:39:01;94418.97;;;1.68;80.12
6136;BME280;24008;42.664;23.372;2023-01-28T09:41:34;94460.13;;;1.81;81.03
6136;BME280;24008;42.664;23.372;2023-01-28T09:44:23;94153.81;;;-0.21;81.46
6136;BME280;24008;42.664;23.372;2023-01-28T09:46:59;94456.91;;;1.79;81.95
6136;BME280;24008;42.664;23.372;2023-01-28T09:49:33;94451.31;;;1.74;81.87
6136;BME280;24008;42.664;23.372;2023-01-28T09:52:01;94453.84;;;1.74;82.45
6136;BME280;24008;42.664;23.372;2023-01-28T09:54:33;94448.72;;;1.75;82.73
6136;BME280;24008;42.664;23.372;2023-01-28T09:57:05;94328.97;;;1.03;82.40
6136;BME280;24008;42.664;23.372;2023-01-28T09:59:34;94454.66;;;1.74;82.84
6136;BME280;24008;42.664;23.372;2023-01-28T10:02:14;94449.19;;;1.68;83.22
6136;BME280;24008;42.664;23.372;2023-01-28T10:04:56;94450.81;;;1.69;82.84
6136;BME280;24008;42.664;23.372;2023-01-28T10:07:33;94314.59;;;0.91;83.44
6136;BME280;24008;42.664;23.372;2023-01-28T10:10:06;94443.88;;;2.12;83.08
6136;BME280;24008;42.664;23.372;2023-01-28T10:16:15;94441.66;;;2.07;82.58
6136;BME280;24008;42.664;23.372;2023-01-28T10:18:49;94309.78;;;1.15;81.42
6136;BME280;24008;42.664;23.372;2023-01-28T10:21:22;94390.53;;;1.66;81.69
6136;BME280;24008;42.664;23.372;2023-01-28T10:23:56;94446.47;;;1.98;82.12
6136;BME280;24008;42.664;23.372;2023-01-28T10:26:30;94451.28;;;1.88;82.18
6136;BME280;24008;42.664;23.372;2023-01-28T10:29:04;94450.78;;;1.96;82.47
6136;BME280;24008;42.664;23.372;2023-01-28T10:31:39;94385.50;;;1.66;82.35
6136;BME280;24008;42.664;23.372;2023-01-28T10:34:08;94434.53;;;1.87;82.59
6136;BME280;24008;42.664;23.372;2023-01-28T10:36:37;94359.97;;;1.58;82.40
6136;BME280;24008;42.664;23.372;2023-01-28T10:39:04;94399.56;;;1.95;82.76
6136;BME280;24008;42.664;23.372;2023-01-28T10:41:33;94399.81;;;2.17;81.42
6136;BME280;24008;42.664;23.372;2023-01-28T10:44:00;94400.16;;;2.26;81.08
6136;BME280;24008;42.664;23.372;2023-01-28T10:46:29;94438.69;;;2.66;80.22
6136;BME280;24008;42.664;23.372;2023-01-28T10:49:01;94382.41;;;2.27;79.38
6136;BME280;24008;42.664;23.372;2023-01-28T10:51:33;94404.69;;;2.46;79.72
6136;BME280;24008;42.664;23.372;2023-01-28T10:54:02;94432.25;;;2.74;79.41
6136;BME280;24008;42.664;23.372;2023-01-28T10:56:31;94320.88;;;2.04;80.13
6136;BME280;24008;42.664;23.372;2023-01-28T10:59:02;94431.25;;;2.64;78.73
6136;BME280;24008;42.664;23.372;2023-01-28T11:01:43;94438.50;;;2.69;79.09
6136;BME280;24008;42.664;23.372;2023-01-28T11:04:16;94431.44;;;2.61;78.96
6136;BME280;24008;42.664;23.372;2023-01-28T11:06:58;94324.56;;;1.86;78.93
6136;BME280;24008;42.664;23.372;2023-01-28T11:09:28;94423.88;;;2.61;79.42
6136;BME280;24008;42.664;23.372;2023-01-28T11:11:56;94438.59;;;2.80;78.93
6136;BME280;24008;42.664;23.372;2023-01-28T11:14:24;94398.13;;;2.56;78.73
6136;BME280;24008;42.664;23.372;2023-01-28T11:16:56;94430.84;;;2.70;77.50
6136;BME280;24008;42.664;23.372;2023-01-28T11:19:28;94433.25;;;2.84;78.06
6136;BME280;24008;42.664;23.372;2023-01-28T11:21:57;94378.97;;;2.66;77.08
6136;BME280;24008;42.664;23.372;2023-01-28T11:24:28;94428.06;;;3.24;76.80
6136;BME280;24008;42.664;23.372;2023-01-28T11:26:57;94435.50;;;3.02;75.61
6136;BME280;24008;42.664;23.372;2023-01-28T11:29:30;94429.41;;;3.04;75.54
6136;BME280;24008;42.664;23.372;2023-01-28T11:31:58;94366.97;;;2.57;75.75
6136;BME280;24008;42.664;23.372;2023-01-28T11:34:28;94395.94;;;2.77;75.89
6136;BME280;24008;42.664;23.372;2023-01-28T11:37:02;94159.28;;;1.45;75.83
6136;BME280;24008;42.664;23.372;2023-01-28T11:39:31;94358.38;;;2.60;75.12
6136;BME280;24008;42.664;23.372;2023-01-28T11:42:11;94431.34;;;2.88;76.30
6136;BME280;24008;42.664;23.372;2023-01-28T11:44:39;94403.28;;;2.67;76.61
6136;BME280;24008;42.664;23.372;2023-01-28T11:47:19;94422.56;;;2.94;75.61
6136;BME280;24008;42.664;23.372;2023-01-28T11:50:14;94424.16;;;2.95;76.78
6136;BME280;24008;42.664;23.372;2023-01-28T11:53:14;94419.75;;;2.85;76.20
6136;BME280;24008;42.664;23.372;2023-01-28T11:55:54;94389.47;;;2.60;75.70
6136;BME280;24008;42.664;23.372;2023-01-28T11:58:33;94388.38;;;2.64;76.63
6136;BME280;24008;42.664;23.372;2023-01-28T12:01:09;94394.50;;;2.60;75.40
6136;BME280;24008;42.664;23.372;2023-01-28T12:03:51;94425.59;;;2.86;76.53
6136;BME280;24008;42.664;23.372;2023-01-28T12:06:34;94312.38;;;2.05;75.60
6136;BME280;24008;42.664;23.372;2023-01-28T12:09:11;94332.78;;;2.28;75.40
6136;BME280;24008;42.664;23.372;2023-01-28T12:11:51;94436.88;;;2.80;76.43
6136;BME280;24008;42.664;23.372;2023-01-28T12:14:56;94433.66;;;2.78;76.13
6136;BME280;24008;42.664;23.372;2023-01-28T12:17:38;94428.59;;;2.78;75.65
6136;BME280;24008;42.664;23.372;2023-01-28T12:20:14;94431.84;;;2.80;75.96
6136;BME280;24008;42.664;23.372;2023-01-28T12:23:09;94432.56;;;2.82;76.72
6136;BME280;24008;42.664;23.372;2023-01-28T12:25:53;94406.22;;;2.61;75.60
6136;BME280;24008;42.664;23.372;2023-01-28T12:28:36;94430.22;;;2.79;75.81
6136;BME280;24008;42.664;23.372;2023-01-28T12:31:19;94428.75;;;2.77;75.54
6136;BME280;24008;42.664;23.372;2023-01-28T12:34:01;94407.66;;;2.65;77.11
6136;BME280;24008;42.664;23.372;2023-01-28T12:36:45;94433.25;;;2.84;76.65
6136;BME280;24008;42.664;23.372;2023-01-28T12:39:24;94438.13;;;2.87;75.88
6136;BME280;24008;42.664;23.372;2023-01-28T12:42:04;94399.75;;;2.57;75.27
6136;BME280;24008;42.664;23.372;2023-01-28T12:44:37;94430.13;;;2.81;75.75
6136;BME280;24008;42.664;23.372;2023-01-28T12:47:09;94382.19;;;2.30;75.85
6136;BME280;24008;42.664;23.372;2023-01-28T12:49:41;94435.69;;;2.73;76.56
6136;BME280;24008;42.664;23.372;2023-01-28T12:52:15;94446.97;;;2.68;77.21
6136;BME280;24008;42.664;23.372;2023-01-28T12:54:52;94332.56;;;1.93;76.88
6136;BME280;24008;42.664;23.372;2023-01-28T12:57:23;94389.66;;;2.44;77.56
6136;BME280;24008;42.664;23.372;2023-01-28T12:59:57;93957.47;;;-0.40;76.26
6136;BME280;24008;42.664;23.372;2023-01-28T13:02:31;94451.22;;;2.67;77.63
6136;BME280;24008;42.664;23.372;2023-01-28T13:05:09;94448.00;;;2.65;77.10
6136;BME280;24008;42.664;23.372;2023-01-28T13:07:43;94348.47;;;2.06;77.65
6136;BME280;24008;42.664;23.372;2023-01-28T13:10:16;94458.88;;;2.78;77.92
6136;BME280;24008;42.664;23.372;2023-01-28T13:12:47;94460.13;;;2.85;77.05
6136;BME280;24008;42.664;23.372;2023-01-28T13:15:17;94407.75;;;2.51;76.31
6136;BME280;24008;42.664;23.372;2023-01-28T13:17:55;94382.91;;;2.32;74.95
6136;BME280;24008;42.664;23.372;2023-01-28T13:20:34;94432.75;;;2.54;74.83
6136;BME280;24008;42.664;23.372;2023-01-28T13:23:03;94414.69;;;2.35;74.81
6136;BME280;24008;42.664;23.372;2023-01-28T13:25:32;94442.03;;;2.41;75.70
6136;BME280;24008;42.664;23.372;2023-01-28T13:28:01;94466.56;;;2.64;76.07